• Join FlightAware (Why Join?)
  • Login
  • US Flag 
04:02AM EDT


 

Airport Tracker/Info


-or-


 

Live Flight TrackerFlight Track Log ✈ N589H ✈ 05-Mar-2014 ✈ CYUL - KCLT

Flight Track Log - Related Links

Times and Time Zones

All times are in EST time to prevent confusion due to time zone crossing. See the N589H flight status page for this flight to view local times or setup timezone preferences in your user account.

Time Position Orientation Groundspeed Altitude Reporting Facility
EST Latitude Longitude Course Direction KTS MPH feet Rate Location/Type
01:28AM 45.4667 -73.7000 207° Southwest 10 12 100  Level Montreal Center
01:29AM 45.4500 -73.7167 215° Southwest 150 173 1,000 1,380 Climbing Montreal Center
01:30AM 45.4000 -73.7667 215° Southwest 180 207 3,200 2,160 Climbing Montreal Center
01:31AM 45.3667 -73.8167 227° Southwest 180 207 5,400 1,980 Climbing Montreal Center
01:32AM 45.3167 -73.8500 205° Southwest 200 230 7,200 1,920 Climbing Montreal Center
01:33AM 45.0604 -74.0283 207° Southwest  Level FlightAware Approximate
01:33AM 45.2500 -73.9000 208° Southwest 220 253 9,300  Level Montreal Center
01:34AM 44.9926 -74.0767 207° Southwest  Level FlightAware Approximate
01:34AM 45.2000 -73.9500 215° Southwest 220 253 11,700  Level Montreal Center
01:35AM 45.1500 -73.9667 193° South 220 253 14,100 2,220 Climbing Montreal Center
01:36AM 45.0833 -74.0167 208° Southwest 230 265 16,200 1,800 Climbing Montreal Center
01:37AM 45.0333 -74.0667 215° Southwest 220 253 17,800 1,560 Climbing Montreal Center
01:38AM 44.9833 -74.1167 215° Southwest 240 276 19,400 1,740 Climbing Montreal Center
01:39AM 44.9167 -74.1500 199° South 250 288 21,300 2,100 Climbing Montreal Center
01:40AM 44.8500 -74.2167 215° Southwest 240 276 23,600 1,980 Climbing Montreal Center
01:41AM 44.8311 -74.2511 232° Southwest 246 283 25,000 1,680 Climbing Boston Center
01:42AM 44.7731 -74.2969 209° Southwest 245 282 26,800 1,680 Climbing Boston Center
01:43AM 44.7136 -74.3458 210° Southwest 245 282 28,400 1,620 Climbing Boston Center
01:44AM 44.6528 -74.3928 209° Southwest 247 284 30,100 1,680 Climbing Boston Center
01:45AM 44.5925 -74.4408 210° Southwest 249 287 31,800 900 Climbing Boston Center
01:46AM 44.5333 -74.4886 210° Southwest 247 284 32,000 60 Climbing Boston Center
01:47AM 44.4608 -74.5436 208° Southwest 277 319 32,000  Level Boston Center
01:48AM 44.3858 -74.6042 210° Southwest 305 351 32,000  Level Boston Center
01:49AM 44.3058 -74.6661 209° Southwest 322 371 32,000  Level Boston Center
01:50AM 44.2253 -74.7300 210° Southwest 331 381 32,000  Level Boston Center
01:51AM 44.1425 -74.7939 209° Southwest 338 389 32,000  Level Boston Center
01:52AM 44.0597 -74.8583 209° Southwest 340 391 32,000  Level Boston Center
01:53AM 43.9767 -74.9242 210° Southwest 343 395 32,000  Level Boston Center
01:54AM 43.8953 -74.9878 209° Southwest 339 390 32,000  Level Boston Center
01:55AM 43.8133 -75.0494 209° Southwest 335 386 32,000  Level Boston Center
01:56AM 43.7325 -75.1136 210° Southwest 336 387 32,000  Level Boston Center
01:57AM 43.6508 -75.1761 209° Southwest 336 387 32,000  Level Boston Center
01:58AM 43.5683 -75.2386 209° Southwest 339 390 32,000  Level Boston Center
01:59AM 43.4872 -75.2994 209° Southwest 338 389 32,000  Level Boston Center
02:00AM 43.3942 -75.3708 209° Southwest 331 381 32,000  Level Boston Center
02:01AM 43.3161 -75.4311 209° Southwest 331 381 32,000  Level Boston Center
02:02AM 43.2369 -75.4919 209° Southwest 330 380 32,000  Level Boston Center
02:03AM 43.1564 -75.5531 209° Southwest 335 386 32,000  Level Boston Center
02:04AM 43.0761 -75.6131 209° Southwest 332 382 32,000  Level Boston Center
02:05AM 42.9972 -75.6728 209° Southwest 326 375 32,000  Level Boston Center
02:06AM 42.9169 -75.7317 208° Southwest 329 379 32,000  Level Boston Center
02:07AM 42.8375 -75.7917 209° Southwest 328 377 32,000  Level Boston Center
02:08AM 42.7578 -75.8506 208° Southwest 327 376 32,000  Level Boston Center
02:09AM 42.6783 -75.9100 209° Southwest 327 376 32,000  Level Boston Center
02:10AM 42.6006 -75.9664 208° Southwest 319 367 32,000  Level Boston Center
02:11AM 42.5236 -76.0244 209° Southwest 316 364 32,000  Level Boston Center
02:12AM 42.4458 -76.0803 208° Southwest 316 364 32,000  Level Boston Center
02:13AM 42.3686 -76.1364 208° Southwest 313 360 32,000  Level Boston Center
02:14AM 42.2925 -76.1931 209° Southwest 317 365 32,000  Level Cleveland Center
02:15AM 42.2150 -76.2494 208° Southwest 318 366 32,000  Level Cleveland Center
02:16AM 42.1389 -76.3058 209° Southwest 316 364 32,000  Level Cleveland Center
02:17AM 42.0619 -76.3611 208° Southwest 315 362 32,000  Level Cleveland Center
02:18AM 41.9833 -76.4167 208° Southwest 316 364 32,000  Level Cleveland Center
02:19AM 41.9050 -76.4747 209° Southwest 318 366 32,000  Level Cleveland Center
02:20AM 41.8267 -76.5292 207° Southwest 318 366 32,000  Level Cleveland Center
02:21AM 41.7486 -76.5864 209° Southwest 318 366 32,000  Level Cleveland Center
02:22AM 41.6706 -76.6422 208° Southwest 318 366 32,000  Level Cleveland Center
02:23AM 41.5922 -76.6978 208° Southwest 318 366 32,000  Level Cleveland Center
02:24AM 41.5253 -76.7475 209° Southwest 316 364 32,000  Level Cleveland Center
02:25AM 41.4469 -76.8028 208° Southwest 317 365 32,000  Level Cleveland Center
02:26AM 41.3675 -76.8569 207° Southwest 318 366 32,000  Level Cleveland Center
02:27AM 41.2869 -76.9128 208° Southwest 323 372 32,000  Level Cleveland Center
02:28AM 41.2086 -76.9681 208° Southwest 320 368 32,000  Level Cleveland Center
02:29AM 41.1306 -77.0219 207° Southwest 319 367 32,000  Level Cleveland Center
02:30AM 41.0378 -77.0872 208° Southwest 317 365 32,000  Level Cleveland Center
02:31AM 40.9442 -77.1531 208° Southwest 317 365 32,000  Level Cleveland Center
02:32AM 40.8667 -77.2056 207° Southwest 316 364 32,000  Level Cleveland Center
02:33AM 40.7897 -77.2597 208° Southwest 315 362 32,000  Level Cleveland Center
02:34AM 40.7119 -77.3122 207° Southwest 315 362 32,000  Level Cleveland Center
02:35AM 40.6336 -77.3667 208° Southwest 315 362 32,000  Level Cleveland Center
02:36AM 40.5564 -77.4194 207° Southwest 315 362 32,000  Level Cleveland Center
02:37AM 40.4778 -77.4736 208° Southwest 315 362 32,000  Level Cleveland Center
02:38AM 40.4003 -77.5272 208° Southwest 315 362 32,000  Level Cleveland Center
02:39AM 40.3236 -77.5794 207° Southwest 315 362 32,000  Level Cleveland Center
02:40AM 40.2419 -77.6339 207° Southwest 315 362 32,000  Level Cleveland Center
02:41AM 40.1650 -77.6878 208° Southwest 314 361 32,000  Level Cleveland Center
02:42AM 40.0881 -77.7378 206° Southwest 313 360 32,000  Level Cleveland Center
02:43AM 40.0111 -77.7906 208° Southwest 313 360 32,000  Level Cleveland Center
02:44AM 39.9347 -77.8419 207° Southwest 313 360 32,000  Level Cleveland Center
02:45AM 39.8575 -77.8925 207° Southwest 312 359 32,000  Level Cleveland Center
02:46AM 39.7803 -77.9456 208° Southwest 312 359 32,000  Level Cleveland Center
02:47AM 39.7028 -77.9967 207° Southwest 312 359 32,000  Level Cleveland Center
02:48AM 39.6258 -78.0475 207° Southwest 312 359 32,000  Level Cleveland Center
02:49AM 39.5483 -78.0986 207° Southwest 312 359 32,000  Level Cleveland Center
02:50AM 39.4531 -78.1611 207° Southwest 314 361 32,000  Level Washington Center
02:51AM 39.3747 -78.2119 207° Southwest 314 361 32,000  Level Washington Center
02:52AM 39.2986 -78.2628 207° Southwest 314 361 32,000  Level Washington Center
02:53AM 39.2203 -78.3136 207° Southwest 314 361 32,000  Level Washington Center
02:54AM 39.1442 -78.3642 207° Southwest 314 361 32,000  Level Washington Center
02:55AM 39.0678 -78.4147 207° Southwest 314 361 32,000  Level Washington Center
02:56AM 38.9917 -78.4628 206° Southwest 314 361 32,000  Level Washington Center
02:57AM 38.9156 -78.5131 207° Southwest 314 361 32,000  Level Washington Center
02:58AM 38.8392 -78.5661 208° Southwest 314 361 32,000  Level Washington Center
02:59AM 38.7650 -78.6161 208° Southwest 314 361 32,000  Level Washington Center
03:00AM 38.6906 -78.6664 208° Southwest 314 361 32,000  Level Washington Center
03:01AM 38.6183 -78.7192 210° Southwest 314 361 32,000  Level Washington Center
03:02AM 38.5419 -78.7717 208° Southwest 314 361 32,000  Level Washington Center
03:03AM 38.4656 -78.8214 207° Southwest 314 361 32,000  Level Washington Center
03:04AM 38.3889 -78.8764 209° Southwest 314 361 32,000  Level Washington Center
03:05AM 38.3144 -78.9314 210° Southwest 314 361 32,000  Level Washington Center
03:06AM 38.2381 -78.9833 208° Southwest 314 361 32,000  Level Washington Center
03:07AM 38.1678 -79.0306 208° Southwest 314 361 32,000  Level Washington Center
03:08AM 38.0911 -79.0822 208° Southwest 314 361 32,000  Level Washington Center
03:09AM 38.0147 -79.1342 208° Southwest 314 361 32,000  Level Washington Center
03:10AM 37.9381 -79.1858 208° Southwest 314 361 32,000  Level Washington Center
03:11AM 37.8550 -79.2425 208° Southwest 314 361 32,000  Level Washington Center
03:12AM 37.7783 -79.2939 208° Southwest 314 361 32,000  Level Washington Center
03:13AM 37.7061 -79.3375 206° Southwest 314 361 32,000  Level Washington Center
03:14AM 37.6228 -79.3936 208° Southwest 314 361 32,000  Level Washington Center
03:15AM 37.5547 -79.4400 208° Southwest 314 361 32,000  Level Washington Center
03:16AM 37.4717 -79.4933 207° Southwest 314 361 32,000  Level Washington Center
03:17AM 37.3925 -79.5469 208° Southwest 319 367 32,000  Level Washington Center
03:18AM 37.3200 -79.5981 209° Southwest 314 361 32,000 -300 Level Washington Center
03:19AM 37.2517 -79.6442 208° Southwest 314 361 31,500 -780 Descending Washington Center
03:20AM 37.1750 -79.6919 206° Southwest 314 361 30,500 -1,020 Descending Washington Center
03:21AM 37.1003 -79.7428 208° Southwest 314 361 29,500 -1,020 Descending Washington Center
03:22AM 37.0233 -79.7933 208° Southwest 314 361 28,500 -1,020 Descending Washington Center
03:23AM 36.9400 -79.8486 208° Southwest 326 375 27,500 -1,140 Descending Washington Center
03:24AM 36.8503 -79.9058 207° Southwest 331 381 26,300 -1,140 Descending Washington Center
03:25AM 36.7669 -79.9608 208° Southwest 331 381 25,300 -1,020 Descending Washington Center
03:27AM 36.6211 -80.0503 206° Southwest 330 380 23,400 -1,080 Descending Atlanta Center
03:28AM 36.5375 -80.1086 209° Southwest 325 374 22,200 -720 Descending Atlanta Center
03:29AM 36.4661 -80.1536 207° Southwest 314 361 22,000 -120 Descending Atlanta Center
03:30AM 36.3903 -80.2011 207° Southwest 304 350 22,000  Level Atlanta Center
03:31AM 36.3189 -80.2483 208° Southwest 304 350 22,000 -720 Level Atlanta Center
03:32AM 36.2431 -80.2956 207° Southwest 304 350 20,600 -1,740 Descending Atlanta Center
03:33AM 36.1778 -80.3372 207° Southwest 304 350 18,600 -1,800 Descending Atlanta Center
03:34AM 36.1061 -80.3817 207° Southwest 299 344 17,000 -1,800 Descending Atlanta Center
03:35AM 36.0344 -80.4286 208° Southwest 299 344 15,100 -1,020 Descending Atlanta Center
03:36AM 35.9628 -80.4753 208° Southwest 299 344 15,000 -120 Descending Atlanta Center
03:36AM 35.9342 -80.4997 215° Southwest 280 322 15,000  Level Atlanta Center
03:37AM 35.8931 -80.5219 204° Southwest 294 338 15,000  Level Atlanta Center
03:37AM 35.8686 -80.5383 209° Southwest 286 329 15,000  Level Atlanta Center
03:38AM 35.8214 -80.5686 207° Southwest 289 333 15,000  Level Atlanta Center
03:38AM 35.7947 -80.5850 206° Southwest 291 335 15,000  Level Atlanta Center
03:39AM 35.7478 -80.6153 208° Southwest 289 333 15,000  Level Atlanta Center
03:39AM 35.7211 -80.6317 207° Southwest 295 339 15,000 -900 Level Atlanta Center
03:40AM 35.6781 -80.6667 213° Southwest 294 338 14,100 -1,620 Descending Atlanta Center
03:40AM 35.6558 -80.6906 221° Southwest 291 335 13,400 -2,220 Descending Atlanta Center
03:41AM 35.6172 -80.7281 218° Southwest 299 344 11,900 -2,400 Descending Atlanta Center
03:41AM 35.5889 -80.7572 220° Southwest 288 331 11,000 -2,340 Descending Atlanta Center
03:42AM 35.5503 -80.7944 218° Southwest 292 336 9,600 -2,700 Descending Atlanta Center
03:42AM 35.5319 -80.8181 226° Southwest 271 312 8,300 -3,120 Descending Atlanta Center
03:43AM 35.4997 -80.8578 225° Southwest 279 321 6,500 -3,000 Descending Atlanta Center
03:43AM 35.4836 -80.8761 223° Southwest 241 277 5,300 -2,520 Descending Atlanta Center
03:44AM 35.4533 -80.9156 227° Southwest 258 297 4,000 -1,320 Descending Atlanta Center
03:44AM 35.4392 -80.9339 227° Southwest 231 266 4,000 -120 Level Atlanta Center
03:45AM 35.4106 -80.9631 220° Southwest 233 268 3,900 -120 Descending Atlanta Center
03:45AM 35.3939 -80.9636 182° South 177 204 3,900 -300 Level Atlanta Center
03:46AM 35.3667 -80.9572 169° South 177 204 3,600 -600 Descending Atlanta Center
03:46AM 35.3497 -80.9525 167° South 158 182 3,300 -960 Descending Atlanta Center
03:47AM 35.3039 -80.9467 174° South 166 191 2,300 -840 Descending Atlanta Center
03:48AM 35.2619 -80.9433 176° South 138 159 1,700 -600 Descending Atlanta Center
03:50AM 35.2137 -80.9491 176° South  Level Estimated
03:57AM 35.2137 -80.9491 176° South  Level Estimated
03:58AM 35.2137 -80.9491 176° South  Level Estimated